sensor_id;sensor_type;location;lat;lon;timestamp;P1;durP1;ratioP1;P2;durP2;ratioP2
54157;SDS011;40065;49.894;10.358;2023-04-08T00:04:43;10.57;;;6.28;;
54157;SDS011;40065;49.894;10.358;2023-04-08T00:09:44;8.95;;;5.93;;
54157;SDS011;40065;49.894;10.358;2023-04-08T00:14:46;7.32;;;5.03;;
54157;SDS011;40065;49.894;10.358;2023-04-08T00:19:48;9.43;;;6.15;;
54157;SDS011;40065;49.894;10.358;2023-04-08T00:24:50;8.60;;;5.82;;
54157;SDS011;40065;49.894;10.358;2023-04-08T00:29:52;8.02;;;5.63;;
54157;SDS011;40065;49.894;10.358;2023-04-08T00:34:54;7.55;;;5.32;;
54157;SDS011;40065;49.894;10.358;2023-04-08T00:39:55;12.68;;;8.05;;
54157;SDS011;40065;49.894;10.358;2023-04-08T00:44:57;11.30;;;6.78;;
54157;SDS011;40065;49.894;10.358;2023-04-08T00:49:59;12.52;;;7.85;;
54157;SDS011;40065;49.894;10.358;2023-04-08T00:55:01;8.63;;;5.50;;
54157;SDS011;40065;49.894;10.358;2023-04-08T01:00:03;9.77;;;6.43;;
54157;SDS011;40065;49.894;10.358;2023-04-08T01:05:08;11.02;;;6.85;;
54157;SDS011;40065;49.894;10.358;2023-04-08T01:10:17;15.20;;;8.00;;
54157;SDS011;40065;49.894;10.358;2023-04-08T01:15:23;12.45;;;8.25;;
54157;SDS011;40065;49.894;10.358;2023-04-08T01:20:26;10.10;;;6.30;;
54157;SDS011;40065;49.894;10.358;2023-04-08T01:25:37;13.65;;;8.02;;
54157;SDS011;40065;49.894;10.358;2023-04-08T01:30:40;10.05;;;6.65;;
54157;SDS011;40065;49.894;10.358;2023-04-08T01:35:43;13.10;;;7.88;;
54157;SDS011;40065;49.894;10.358;2023-04-08T01:40:46;11.13;;;7.10;;
54157;SDS011;40065;49.894;10.358;2023-04-08T01:45:48;11.93;;;7.53;;
54157;SDS011;40065;49.894;10.358;2023-04-08T01:50:54;11.43;;;7.60;;
54157;SDS011;40065;49.894;10.358;2023-04-08T01:56:00;12.30;;;7.97;;
54157;SDS011;40065;49.894;10.358;2023-04-08T02:01:09;13.68;;;8.38;;
54157;SDS011;40065;49.894;10.358;2023-04-08T02:06:12;10.02;;;6.57;;
54157;SDS011;40065;49.894;10.358;2023-04-08T02:11:14;10.63;;;6.88;;
54157;SDS011;40065;49.894;10.358;2023-04-08T02:21:36;9.68;;;6.47;;
54157;SDS011;40065;49.894;10.358;2023-04-08T02:26:55;10.15;;;7.30;;
54157;SDS011;40065;49.894;10.358;2023-04-08T02:31:57;10.95;;;6.97;;
54157;SDS011;40065;49.894;10.358;2023-04-08T02:42:05;11.55;;;7.28;;
54157;SDS011;40065;49.894;10.358;2023-04-08T02:47:07;11.75;;;7.72;;
54157;SDS011;40065;49.894;10.358;2023-04-08T02:52:08;11.82;;;8.13;;
54157;SDS011;40065;49.894;10.358;2023-04-08T02:57:10;11.75;;;7.30;;
54157;SDS011;40065;49.894;10.358;2023-04-08T03:02:13;10.98;;;6.80;;
54157;SDS011;40065;49.894;10.358;2023-04-08T03:07:15;12.45;;;7.97;;
54157;SDS011;40065;49.894;10.358;2023-04-08T03:12:16;12.90;;;7.80;;
54157;SDS011;40065;49.894;10.358;2023-04-08T03:17:18;13.98;;;9.27;;
54157;SDS011;40065;49.894;10.358;2023-04-08T03:22:20;11.98;;;7.40;;
54157;SDS011;40065;49.894;10.358;2023-04-08T03:27:24;10.50;;;7.00;;
54157;SDS011;40065;49.894;10.358;2023-04-08T03:32:26;11.98;;;7.40;;
54157;SDS011;40065;49.894;10.358;2023-04-08T03:37:28;8.25;;;5.93;;
54157;SDS011;40065;49.894;10.358;2023-04-08T03:42:30;12.15;;;6.47;;
54157;SDS011;40065;49.894;10.358;2023-04-08T03:47:32;10.48;;;6.72;;
54157;SDS011;40065;49.894;10.358;2023-04-08T03:52:34;11.10;;;7.07;;
54157;SDS011;40065;49.894;10.358;2023-04-08T03:57:36;9.63;;;6.25;;
54157;SDS011;40065;49.894;10.358;2023-04-08T04:02:37;9.70;;;6.43;;
54157;SDS011;40065;49.894;10.358;2023-04-08T04:07:39;9.20;;;5.40;;
54157;SDS011;40065;49.894;10.358;2023-04-08T04:12:41;10.43;;;6.85;;
54157;SDS011;40065;49.894;10.358;2023-04-08T04:17:46;7.90;;;5.32;;
54157;SDS011;40065;49.894;10.358;2023-04-08T04:22:50;15.20;;;9.30;;
54157;SDS011;40065;49.894;10.358;2023-04-08T04:27:52;14.45;;;7.95;;
54157;SDS011;40065;49.894;10.358;2023-04-08T04:32:54;13.45;;;8.30;;
54157;SDS011;40065;49.894;10.358;2023-04-08T04:37:56;14.98;;;9.55;;
54157;SDS011;40065;49.894;10.358;2023-04-08T04:42:58;13.60;;;9.15;;
54157;SDS011;40065;49.894;10.358;2023-04-08T04:48:00;10.10;;;6.22;;
54157;SDS011;40065;49.894;10.358;2023-04-08T04:53:02;8.57;;;5.93;;
54157;SDS011;40065;49.894;10.358;2023-04-08T04:58:04;11.95;;;7.35;;
54157;SDS011;40065;49.894;10.358;2023-04-08T05:03:06;13.35;;;8.40;;
54157;SDS011;40065;49.894;10.358;2023-04-08T05:08:08;12.30;;;7.10;;
54157;SDS011;40065;49.894;10.358;2023-04-08T05:13:10;17.48;;;9.65;;
54157;SDS011;40065;49.894;10.358;2023-04-08T05:18:11;16.90;;;10.63;;
54157;SDS011;40065;49.894;10.358;2023-04-08T05:23:13;13.55;;;9.65;;
54157;SDS011;40065;49.894;10.358;2023-04-08T05:28:15;15.60;;;11.00;;
54157;SDS011;40065;49.894;10.358;2023-04-08T05:33:17;13.45;;;8.55;;
54157;SDS011;40065;49.894;10.358;2023-04-08T05:38:19;11.90;;;7.45;;
54157;SDS011;40065;49.894;10.358;2023-04-08T05:43:21;15.52;;;9.95;;
54157;SDS011;40065;49.894;10.358;2023-04-08T05:48:23;12.93;;;8.93;;
54157;SDS011;40065;49.894;10.358;2023-04-08T05:53:25;18.95;;;11.85;;
54157;SDS011;40065;49.894;10.358;2023-04-08T05:58:27;19.45;;;12.25;;
54157;SDS011;40065;49.894;10.358;2023-04-08T06:03:30;37.38;;;22.27;;
54157;SDS011;40065;49.894;10.358;2023-04-08T06:08:32;13.45;;;9.13;;
54157;SDS011;40065;49.894;10.358;2023-04-08T06:13:33;15.32;;;9.60;;
54157;SDS011;40065;49.894;10.358;2023-04-08T06:18:35;21.10;;;12.13;;
54157;SDS011;40065;49.894;10.358;2023-04-08T06:23:37;13.95;;;9.82;;
54157;SDS011;40065;49.894;10.358;2023-04-08T06:28:38;11.52;;;8.07;;
54157;SDS011;40065;49.894;10.358;2023-04-08T06:33:40;12.90;;;8.65;;
54157;SDS011;40065;49.894;10.358;2023-04-08T06:38:42;14.23;;;9.18;;
54157;SDS011;40065;49.894;10.358;2023-04-08T06:43:44;12.48;;;7.82;;
54157;SDS011;40065;49.894;10.358;2023-04-08T06:48:45;9.93;;;6.40;;
54157;SDS011;40065;49.894;10.358;2023-04-08T06:53:47;8.68;;;5.88;;
54157;SDS011;40065;49.894;10.358;2023-04-08T06:58:49;10.43;;;6.32;;
54157;SDS011;40065;49.894;10.358;2023-04-08T07:03:51;10.10;;;5.88;;
54157;SDS011;40065;49.894;10.358;2023-04-08T07:08:53;11.38;;;6.10;;
54157;SDS011;40065;49.894;10.358;2023-04-08T07:13:55;181.40;;;24.45;;
54157;SDS011;40065;49.894;10.358;2023-04-08T07:18:57;10.55;;;6.72;;
54157;SDS011;40065;49.894;10.358;2023-04-08T07:23:58;12.02;;;6.60;;
54157;SDS011;40065;49.894;10.358;2023-04-08T07:29:00;10.00;;;6.28;;
54157;SDS011;40065;49.894;10.358;2023-04-08T07:34:02;7.50;;;5.30;;
54157;SDS011;40065;49.894;10.358;2023-04-08T07:39:04;8.10;;;5.22;;
54157;SDS011;40065;49.894;10.358;2023-04-08T07:44:06;9.35;;;5.00;;
54157;SDS011;40065;49.894;10.358;2023-04-08T07:49:08;9.05;;;5.90;;
54157;SDS011;40065;49.894;10.358;2023-04-08T07:54:10;7.13;;;5.13;;
54157;SDS011;40065;49.894;10.358;2023-04-08T07:59:12;8.38;;;5.90;;
54157;SDS011;40065;49.894;10.358;2023-04-08T08:04:14;9.15;;;5.45;;
54157;SDS011;40065;49.894;10.358;2023-04-08T08:09:16;9.63;;;5.88;;
54157;SDS011;40065;49.894;10.358;2023-04-08T08:14:18;10.88;;;6.03;;
54157;SDS011;40065;49.894;10.358;2023-04-08T08:19:20;9.70;;;5.00;;
54157;SDS011;40065;49.894;10.358;2023-04-08T08:24:22;8.13;;;5.50;;
54157;SDS011;40065;49.894;10.358;2023-04-08T08:29:24;9.05;;;5.55;;
54157;SDS011;40065;49.894;10.358;2023-04-08T08:34:26;7.45;;;5.05;;
54157;SDS011;40065;49.894;10.358;2023-04-08T08:39:27;6.55;;;4.60;;
54157;SDS011;40065;49.894;10.358;2023-04-08T08:44:29;10.45;;;5.22;;
54157;SDS011;40065;49.894;10.358;2023-04-08T08:49:31;9.07;;;5.20;;
54157;SDS011;40065;49.894;10.358;2023-04-08T08:54:33;7.63;;;4.70;;
54157;SDS011;40065;49.894;10.358;2023-04-08T08:59:35;6.03;;;4.55;;
54157;SDS011;40065;49.894;10.358;2023-04-08T09:04:37;7.00;;;4.50;;
54157;SDS011;40065;49.894;10.358;2023-04-08T09:09:48;6.07;;;4.05;;
54157;SDS011;40065;49.894;10.358;2023-04-08T09:15:01;6.13;;;4.15;;
54157;SDS011;40065;49.894;10.358;2023-04-08T09:20:11;6.55;;;4.05;;
54157;SDS011;40065;49.894;10.358;2023-04-08T09:25:23;5.38;;;3.78;;
54157;SDS011;40065;49.894;10.358;2023-04-08T09:30:26;10.13;;;4.03;;
54157;SDS011;40065;49.894;10.358;2023-04-08T09:35:28;5.40;;;3.65;;
54157;SDS011;40065;49.894;10.358;2023-04-08T09:40:31;4.78;;;3.28;;
54157;SDS011;40065;49.894;10.358;2023-04-08T09:45:38;14.63;;;4.28;;
54157;SDS011;40065;49.894;10.358;2023-04-08T09:50:44;5.60;;;3.20;;
54157;SDS011;40065;49.894;10.358;2023-04-08T09:55:50;4.50;;;2.60;;
54157;SDS011;40065;49.894;10.358;2023-04-08T10:00:55;21.13;;;3.90;;
54157;SDS011;40065;49.894;10.358;2023-04-08T10:05:57;3.15;;;2.08;;
54157;SDS011;40065;49.894;10.358;2023-04-08T10:11:03;4.18;;;2.70;;
54157;SDS011;40065;49.894;10.358;2023-04-08T10:16:18;3.45;;;2.70;;
54157;SDS011;40065;49.894;10.358;2023-04-08T10:21:38;4.32;;;2.70;;
54157;SDS011;40065;49.894;10.358;2023-04-08T10:26:48;3.55;;;2.35;;
54157;SDS011;40065;49.894;10.358;2023-04-08T10:31:49;4.07;;;2.92;;
54157;SDS011;40065;49.894;10.358;2023-04-08T10:36:52;4.93;;;2.75;;
54157;SDS011;40065;49.894;10.358;2023-04-08T10:41:55;4.47;;;3.00;;
54157;SDS011;40065;49.894;10.358;2023-04-08T10:46:57;6.90;;;3.50;;
54157;SDS011;40065;49.894;10.358;2023-04-08T10:52:00;4.57;;;3.10;;
54157;SDS011;40065;49.894;10.358;2023-04-08T10:57:07;4.32;;;2.85;;
54157;SDS011;40065;49.894;10.358;2023-04-08T11:02:13;5.20;;;3.22;;
54157;SDS011;40065;49.894;10.358;2023-04-08T11:07:18;7.10;;;3.40;;
54157;SDS011;40065;49.894;10.358;2023-04-08T11:17:23;6.03;;;3.08;;
54157;SDS011;40065;49.894;10.358;2023-04-08T11:22:25;5.95;;;2.53;;
54157;SDS011;40065;49.894;10.358;2023-04-08T11:27:27;3.78;;;2.38;;
54157;SDS011;40065;49.894;10.358;2023-04-08T11:32:29;7.57;;;2.75;;
54157;SDS011;40065;49.894;10.358;2023-04-08T11:37:35;3.35;;;2.55;;
54157;SDS011;40065;49.894;10.358;2023-04-08T11:42:41;4.88;;;3.38;;
54157;SDS011;40065;49.894;10.358;2023-04-08T11:47:45;6.32;;;4.28;;
54157;SDS011;40065;49.894;10.358;2023-04-08T11:52:49;3.08;;;2.10;;
54157;SDS011;40065;49.894;10.358;2023-04-08T11:57:52;3.95;;;2.30;;
54157;SDS011;40065;49.894;10.358;2023-04-08T12:02:54;3.22;;;2.40;;
54157;SDS011;40065;49.894;10.358;2023-04-08T12:07:56;3.65;;;2.33;;
54157;SDS011;40065;49.894;10.358;2023-04-08T12:12:58;3.38;;;2.00;;
54157;SDS011;40065;49.894;10.358;2023-04-08T12:17:59;3.03;;;2.00;;
54157;SDS011;40065;49.894;10.358;2023-04-08T12:23:01;3.17;;;2.00;;
54157;SDS011;40065;49.894;10.358;2023-04-08T12:28:03;2.60;;;1.67;;
54157;SDS011;40065;49.894;10.358;2023-04-08T12:33:05;3.47;;;2.22;;
54157;SDS011;40065;49.894;10.358;2023-04-08T12:38:07;13.95;;;7.35;;
54157;SDS011;40065;49.894;10.358;2023-04-08T12:43:09;3.38;;;2.20;;
54157;SDS011;40065;49.894;10.358;2023-04-08T12:48:11;2.83;;;2.30;;
54157;SDS011;40065;49.894;10.358;2023-04-08T12:53:12;3.42;;;2.35;;
54157;SDS011;40065;49.894;10.358;2023-04-08T12:58:14;3.05;;;2.22;;
54157;SDS011;40065;49.894;10.358;2023-04-08T13:03:17;2.55;;;1.90;;
54157;SDS011;40065;49.894;10.358;2023-04-08T13:08:19;6.00;;;4.20;;
54157;SDS011;40065;49.894;10.358;2023-04-08T13:13:20;3.17;;;2.38;;
54157;SDS011;40065;49.894;10.358;2023-04-08T13:18:22;4.82;;;3.35;;
54157;SDS011;40065;49.894;10.358;2023-04-08T13:23:24;4.25;;;2.97;;
54157;SDS011;40065;49.894;10.358;2023-04-08T13:28:26;4.40;;;2.90;;
54157;SDS011;40065;49.894;10.358;2023-04-08T13:33:27;5.07;;;4.07;;
54157;SDS011;40065;49.894;10.358;2023-04-08T13:38:29;5.03;;;3.10;;
54157;SDS011;40065;49.894;10.358;2023-04-08T13:43:31;4.75;;;3.42;;
54157;SDS011;40065;49.894;10.358;2023-04-08T13:48:33;5.80;;;3.20;;
54157;SDS011;40065;49.894;10.358;2023-04-08T13:53:35;4.75;;;2.90;;
54157;SDS011;40065;49.894;10.358;2023-04-08T13:58:36;5.43;;;3.33;;
54157;SDS011;40065;49.894;10.358;2023-04-08T14:03:38;5.07;;;3.35;;
54157;SDS011;40065;49.894;10.358;2023-04-08T14:08:40;5.20;;;3.58;;
54157;SDS011;40065;49.894;10.358;2023-04-08T14:13:42;5.63;;;3.42;;
54157;SDS011;40065;49.894;10.358;2023-04-08T14:18:44;5.18;;;3.47;;
54157;SDS011;40065;49.894;10.358;2023-04-08T14:23:46;7.30;;;4.05;;
54157;SDS011;40065;49.894;10.358;2023-04-08T14:28:48;5.70;;;3.63;;
54157;SDS011;40065;49.894;10.358;2023-04-08T14:33:50;7.55;;;4.38;;
54157;SDS011;40065;49.894;10.358;2023-04-08T14:38:52;8.65;;;5.22;;
54157;SDS011;40065;49.894;10.358;2023-04-08T14:43:54;6.75;;;4.40;;
54157;SDS011;40065;49.894;10.358;2023-04-08T14:48:56;6.22;;;4.13;;
54157;SDS011;40065;49.894;10.358;2023-04-08T14:53:59;8.70;;;4.53;;
54157;SDS011;40065;49.894;10.358;2023-04-08T14:59:02;7.22;;;4.45;;
54157;SDS011;40065;49.894;10.358;2023-04-08T15:04:04;6.55;;;3.65;;
54157;SDS011;40065;49.894;10.358;2023-04-08T15:09:05;11.38;;;5.35;;
54157;SDS011;40065;49.894;10.358;2023-04-08T15:14:07;8.43;;;5.55;;
54157;SDS011;40065;49.894;10.358;2023-04-08T15:19:09;10.30;;;6.13;;
54157;SDS011;40065;49.894;10.358;2023-04-08T15:24:11;14.90;;;8.65;;
54157;SDS011;40065;49.894;10.358;2023-04-08T15:29:14;29.65;;;15.25;;
54157;SDS011;40065;49.894;10.358;2023-04-08T15:34:16;7.90;;;5.32;;
54157;SDS011;40065;49.894;10.358;2023-04-08T15:39:18;9.27;;;5.95;;
54157;SDS011;40065;49.894;10.358;2023-04-08T15:44:19;9.30;;;5.40;;
54157;SDS011;40065;49.894;10.358;2023-04-08T15:49:22;10.38;;;7.18;;
54157;SDS011;40065;49.894;10.358;2023-04-08T15:54:24;11.80;;;7.50;;
54157;SDS011;40065;49.894;10.358;2023-04-08T15:59:29;11.68;;;5.57;;
54157;SDS011;40065;49.894;10.358;2023-04-08T16:04:30;10.68;;;5.60;;
54157;SDS011;40065;49.894;10.358;2023-04-08T16:09:32;8.90;;;5.90;;
54157;SDS011;40065;49.894;10.358;2023-04-08T16:14:34;9.35;;;5.40;;
54157;SDS011;40065;49.894;10.358;2023-04-08T16:19:36;9.82;;;5.50;;
54157;SDS011;40065;49.894;10.358;2023-04-08T16:24:37;8.85;;;5.65;;
54157;SDS011;40065;49.894;10.358;2023-04-08T16:29:39;8.70;;;5.82;;
54157;SDS011;40065;49.894;10.358;2023-04-08T16:34:42;11.02;;;6.47;;
54157;SDS011;40065;49.894;10.358;2023-04-08T16:39:44;11.73;;;7.47;;
54157;SDS011;40065;49.894;10.358;2023-04-08T16:44:46;10.35;;;6.40;;
54157;SDS011;40065;49.894;10.358;2023-04-08T16:49:49;12.00;;;6.85;;
54157;SDS011;40065;49.894;10.358;2023-04-08T16:54:52;9.50;;;5.78;;
54157;SDS011;40065;49.894;10.358;2023-04-08T16:59:54;11.75;;;6.93;;
54157;SDS011;40065;49.894;10.358;2023-04-08T17:04:56;13.02;;;7.55;;
54157;SDS011;40065;49.894;10.358;2023-04-08T17:09:58;11.32;;;6.95;;
54157;SDS011;40065;49.894;10.358;2023-04-08T17:15:00;12.90;;;7.95;;
54157;SDS011;40065;49.894;10.358;2023-04-08T17:20:02;12.00;;;7.53;;
54157;SDS011;40065;49.894;10.358;2023-04-08T17:25:05;12.13;;;7.88;;
54157;SDS011;40065;49.894;10.358;2023-04-08T17:30:08;26.23;;;13.95;;
54157;SDS011;40065;49.894;10.358;2023-04-08T17:35:11;15.70;;;9.60;;
54157;SDS011;40065;49.894;10.358;2023-04-08T17:40:14;13.25;;;7.88;;
54157;SDS011;40065;49.894;10.358;2023-04-08T17:45:16;10.80;;;7.18;;
54157;SDS011;40065;49.894;10.358;2023-04-08T17:50:18;11.52;;;7.20;;
54157;SDS011;40065;49.894;10.358;2023-04-08T17:55:21;16.38;;;10.50;;
54157;SDS011;40065;49.894;10.358;2023-04-08T18:00:23;13.07;;;7.80;;
54157;SDS011;40065;49.894;10.358;2023-04-08T18:05:26;16.02;;;8.80;;
54157;SDS011;40065;49.894;10.358;2023-04-08T18:10:29;12.45;;;7.32;;
54157;SDS011;40065;49.894;10.358;2023-04-08T18:15:33;14.05;;;8.65;;
54157;SDS011;40065;49.894;10.358;2023-04-08T18:20:36;13.13;;;8.20;;
54157;SDS011;40065;49.894;10.358;2023-04-08T18:25:38;12.82;;;7.78;;
54157;SDS011;40065;49.894;10.358;2023-04-08T18:35:44;13.50;;;8.00;;
54157;SDS011;40065;49.894;10.358;2023-04-08T18:40:47;13.80;;;8.23;;
54157;SDS011;40065;49.894;10.358;2023-04-08T18:45:48;14.15;;;8.40;;
54157;SDS011;40065;49.894;10.358;2023-04-08T18:50:50;16.45;;;9.20;;
54157;SDS011;40065;49.894;10.358;2023-04-08T18:55:52;15.93;;;9.27;;
54157;SDS011;40065;49.894;10.358;2023-04-08T19:00:54;18.80;;;9.57;;
54157;SDS011;40065;49.894;10.358;2023-04-08T19:05:56;19.45;;;10.07;;
54157;SDS011;40065;49.894;10.358;2023-04-08T19:10:58;19.58;;;10.15;;
54157;SDS011;40065;49.894;10.358;2023-04-08T19:16:00;18.80;;;10.95;;
54157;SDS011;40065;49.894;10.358;2023-04-08T19:21:02;29.42;;;17.35;;
54157;SDS011;40065;49.894;10.358;2023-04-08T19:26:04;19.70;;;10.85;;
54157;SDS011;40065;49.894;10.358;2023-04-08T19:31:13;26.02;;;14.65;;
54157;SDS011;40065;49.894;10.358;2023-04-08T19:36:16;18.20;;;10.57;;
54157;SDS011;40065;49.894;10.358;2023-04-08T19:41:18;18.08;;;10.32;;
54157;SDS011;40065;49.894;10.358;2023-04-08T19:46:20;17.45;;;10.50;;
54157;SDS011;40065;49.894;10.358;2023-04-08T19:51:22;18.08;;;10.20;;
54157;SDS011;40065;49.894;10.358;2023-04-08T19:56:26;13.48;;;7.57;;
54157;SDS011;40065;49.894;10.358;2023-04-08T20:01:28;16.67;;;9.57;;
54157;SDS011;40065;49.894;10.358;2023-04-08T20:06:30;12.75;;;7.70;;
54157;SDS011;40065;49.894;10.358;2023-04-08T20:11:32;16.52;;;9.27;;
54157;SDS011;40065;49.894;10.358;2023-04-08T20:16:34;14.50;;;8.48;;
54157;SDS011;40065;49.894;10.358;2023-04-08T20:21:35;16.33;;;9.40;;
54157;SDS011;40065;49.894;10.358;2023-04-08T20:26:38;12.93;;;7.70;;
54157;SDS011;40065;49.894;10.358;2023-04-08T20:31:40;12.63;;;8.20;;
54157;SDS011;40065;49.894;10.358;2023-04-08T20:36:44;15.17;;;9.33;;
54157;SDS011;40065;49.894;10.358;2023-04-08T20:41:46;11.70;;;7.07;;
54157;SDS011;40065;49.894;10.358;2023-04-08T20:46:48;11.35;;;6.43;;
54157;SDS011;40065;49.894;10.358;2023-04-08T20:51:50;15.13;;;8.60;;
54157;SDS011;40065;49.894;10.358;2023-04-08T20:56:52;12.13;;;7.00;;
54157;SDS011;40065;49.894;10.358;2023-04-08T21:01:54;10.95;;;6.65;;
54157;SDS011;40065;49.894;10.358;2023-04-08T21:06:56;12.50;;;7.15;;
54157;SDS011;40065;49.894;10.358;2023-04-08T21:11:57;18.35;;;11.35;;
54157;SDS011;40065;49.894;10.358;2023-04-08T21:16:59;13.73;;;7.70;;
54157;SDS011;40065;49.894;10.358;2023-04-08T21:22:01;13.73;;;8.25;;
54157;SDS011;40065;49.894;10.358;2023-04-08T21:27:03;16.88;;;9.52;;
54157;SDS011;40065;49.894;10.358;2023-04-08T21:32:05;15.70;;;8.50;;
54157;SDS011;40065;49.894;10.358;2023-04-08T21:37:07;14.95;;;8.88;;
54157;SDS011;40065;49.894;10.358;2023-04-08T21:42:09;14.98;;;7.95;;
54157;SDS011;40065;49.894;10.358;2023-04-08T21:47:11;14.40;;;8.00;;
54157;SDS011;40065;49.894;10.358;2023-04-08T21:52:13;15.35;;;8.90;;
54157;SDS011;40065;49.894;10.358;2023-04-08T21:57:15;16.13;;;9.02;;
54157;SDS011;40065;49.894;10.358;2023-04-08T22:02:16;18.05;;;10.13;;
54157;SDS011;40065;49.894;10.358;2023-04-08T22:07:18;15.57;;;8.93;;
54157;SDS011;40065;49.894;10.358;2023-04-08T22:12:21;13.55;;;8.60;;
54157;SDS011;40065;49.894;10.358;2023-04-08T22:17:22;17.52;;;10.18;;
54157;SDS011;40065;49.894;10.358;2023-04-08T22:22:24;15.63;;;9.00;;
54157;SDS011;40065;49.894;10.358;2023-04-08T22:27:29;21.05;;;10.75;;
54157;SDS011;40065;49.894;10.358;2023-04-08T22:32:30;21.67;;;12.13;;
54157;SDS011;40065;49.894;10.358;2023-04-08T22:37:32;22.48;;;12.63;;
54157;SDS011;40065;49.894;10.358;2023-04-08T22:42:34;18.48;;;9.93;;
54157;SDS011;40065;49.894;10.358;2023-04-08T22:47:36;20.67;;;11.50;;
54157;SDS011;40065;49.894;10.358;2023-04-08T22:52:38;20.23;;;11.73;;
54157;SDS011;40065;49.894;10.358;2023-04-08T22:57:39;21.77;;;12.18;;
54157;SDS011;40065;49.894;10.358;2023-04-08T23:02:41;22.13;;;11.98;;
54157;SDS011;40065;49.894;10.358;2023-04-08T23:07:43;22.90;;;12.25;;
54157;SDS011;40065;49.894;10.358;2023-04-08T23:12:45;21.33;;;12.68;;
54157;SDS011;40065;49.894;10.358;2023-04-08T23:17:46;24.10;;;14.05;;
54157;SDS011;40065;49.894;10.358;2023-04-08T23:22:48;25.20;;;14.95;;
54157;SDS011;40065;49.894;10.358;2023-04-08T23:27:50;23.85;;;12.98;;
54157;SDS011;40065;49.894;10.358;2023-04-08T23:32:52;26.42;;;14.95;;
54157;SDS011;40065;49.894;10.358;2023-04-08T23:37:53;22.63;;;14.23;;
54157;SDS011;40065;49.894;10.358;2023-04-08T23:42:55;24.13;;;12.43;;
54157;SDS011;40065;49.894;10.358;2023-04-08T23:47:57;22.38;;;13.05;;
54157;SDS011;40065;49.894;10.358;2023-04-08T23:52:59;20.35;;;11.63;;
54157;SDS011;40065;49.894;10.358;2023-04-08T23:58:00;27.30;;;15.27;;
